Time;durP1;ratioP1;P1;durP2;ratioP2;P2;SDS_P1;SDS_P2;PMS_P1;PMS_P2;Temp;Humidity;BMP_temperature;BMP_pressure;BME280_temperature;BME280_humidity;BME280_pressure;Samples;Min_cycle;Max_cycle;Signal;HPM_P1;HPM_P2
2022/07/28 00:01:59;;;;;;;5.50;2.70;;;20.40;58.50;;;;;;5070318;28;20423;-73
2022/07/28 00:04:25;;;;;;;6.60;2.90;;;20.50;58.40;;;;;;5071746;28;20579;-74
2022/07/28 00:06:51;;;;;;;3.47;2.60;;;20.60;58.00;;;;;;5068554;28;20455;-72
2022/07/28 00:09:16;;;;;;;5.77;2.70;;;20.60;58.00;;;;;;5066586;28;20197;-73
2022/07/28 00:11:42;;;;;;;6.60;3.03;;;20.60;58.00;;;;;;5067780;28;20215;-73
2022/07/28 00:14:09;;;;;;;4.60;2.90;;;20.60;58.00;;;;;;5065841;28;20222;-73
2022/07/28 00:16:35;;;;;;;5.60;2.93;;;20.50;58.10;;;;;;5067886;28;20206;-73
2022/07/28 00:19:01;;;;;;;3.50;2.43;;;20.50;58.40;;;;;;5072719;28;20428;-74
2022/07/28 00:21:26;;;;;;;4.30;2.83;;;20.40;58.40;;;;;;5074658;28;20662;-73
2022/07/28 00:23:52;;;;;;;5.70;3.00;;;20.30;58.80;;;;;;5076222;28;20235;-74
2022/07/28 00:26:17;;;;;;;4.73;2.90;;;20.20;58.80;;;;;;5069382;28;20212;-74
2022/07/28 00:42:32;;;;;;;4.53;2.70;;;20.30;59.10;;;;;;5067550;28;20393;-73
2022/07/28 00:44:58;;;;;;;6.00;2.87;;;20.30;59.70;;;;;;5079638;28;20507;-73
2022/07/28 00:47:23;;;;;;;3.30;2.50;;;20.20;60.60;;;;;;5074683;28;20223;-73
2022/07/28 00:49:49;;;;;;;4.60;2.53;;;20.10;61.20;;;;;;5079474;28;20221;-72
2022/07/28 00:52:17;;;;;;;3.97;2.77;;;20.00;61.50;;;;;;5079645;28;20181;-72
2022/07/28 00:54:42;;;;;;;6.87;2.87;;;19.90;62.00;;;;;;5082051;28;20200;-72
2022/07/28 00:57:08;;;;;;;4.13;2.73;;;19.90;62.20;;;;;;5068361;28;20998;-73
2022/07/28 00:59:34;;;;;;;4.03;2.63;;;19.80;62.50;;;;;;5070953;28;20436;-74
2022/07/28 01:02:00;;;;;;;3.63;2.47;;;19.70;62.80;;;;;;5069413;28;20184;-72
2022/07/28 01:04:26;;;;;;;5.47;3.07;;;19.60;62.80;;;;;;5066891;28;20193;-72
2022/07/28 01:06:55;;;;;;;4.33;3.23;;;19.50;63.20;;;;;;5067135;28;20457;-73
2022/07/28 01:09:39;;;;;;;6.07;2.67;;;19.40;63.50;;;;;;5075740;28;20300;-72
2022/07/28 01:12:14;;;;;;;4.60;2.70;;;19.40;63.70;;;;;;5080202;28;20413;-74
2022/07/28 01:15:08;;;;;;;5.20;2.70;;;19.30;63.50;;;;;;5075889;28;20531;-74
2022/07/28 01:18:01;;;;;;;4.67;2.80;;;19.20;63.80;;;;;;5075867;28;20556;-73
2022/07/28 01:20:44;;;;;;;4.57;2.53;;;19.10;64.40;;;;;;5081023;28;20421;-74
2022/07/28 01:23:26;;;;;;;3.77;2.80;;;19.10;64.20;;;;;;5064868;28;20417;-73
2022/07/28 01:26:10;;;;;;;4.90;3.20;;;19.10;64.40;;;;;;5061748;28;20454;-73
2022/07/28 01:28:49;;;;;;;6.20;3.00;;;19.10;64.80;;;;;;5059531;28;20571;-74
2022/07/28 01:31:19;;;;;;;7.27;2.50;;;18.90;65.10;;;;;;5067737;28;20424;-74
2022/07/28 01:33:49;;;;;;;5.13;2.77;;;18.90;65.30;;;;;;5069694;28;20425;-73
2022/07/28 01:36:19;;;;;;;5.63;3.20;;;18.80;65.80;;;;;;5067467;28;20474;-74
2022/07/28 01:38:47;;;;;;;8.40;2.90;;;18.70;66.00;;;;;;5068626;28;20420;-73
2022/07/28 01:41:26;;;;;;;5.87;3.00;;;18.70;65.70;;;;;;5055553;28;20455;-75
2022/07/28 01:44:03;;;;;;;9.47;2.87;;;18.60;66.00;;;;;;5065568;28;20429;-73
2022/07/28 01:46:30;;;;;;;6.37;2.97;;;18.50;66.40;;;;;;5061793;28;20464;-73
2022/07/28 01:49:07;;;;;;;5.57;2.63;;;18.50;66.40;;;;;;5068500;28;20605;-74
2022/07/28 01:51:33;;;;;;;7.30;4.40;;;18.50;66.60;;;;;;5065098;28;20415;-74
2022/07/28 01:54:01;;;;;;;7.13;2.67;;;18.50;66.70;;;;;;5069606;28;20460;-74
2022/07/28 01:56:31;;;;;;;4.00;2.63;;;18.40;67.00;;;;;;5063011;28;20995;-73
2022/07/28 01:58:59;;;;;;;6.73;3.77;;;18.50;67.00;;;;;;5069347;28;20414;-73
2022/07/28 02:01:26;;;;;;;3.30;2.60;;;18.40;67.00;;;;;;5067836;28;20915;-73
2022/07/28 02:03:55;;;;;;;2.90;2.30;;;18.30;67.20;;;;;;5066382;28;20738;-74
2022/07/28 02:06:21;;;;;;;4.37;3.10;;;18.30;67.30;;;;;;5061059;28;20470;-73
2022/07/28 02:08:49;;;;;;;6.83;3.10;;;18.30;67.50;;;;;;5062365;28;20582;-73
2022/07/28 02:13:59;;;;;;;5.80;3.03;;;18.40;67.30;;;;;;5063757;28;20459;-73
2022/07/28 02:16:28;;;;;;;7.67;2.83;;;18.40;67.20;;;;;;5058825;28;20465;-73
2022/07/28 02:18:56;;;;;;;4.30;2.70;;;18.40;67.00;;;;;;5059693;28;20439;-73
2022/07/28 02:21:24;;;;;;;4.13;2.70;;;18.30;67.30;;;;;;5065337;28;20503;-74
2022/07/28 02:23:51;;;;;;;4.57;3.20;;;18.30;67.50;;;;;;5069964;28;21199;-73
2022/07/28 02:26:20;;;;;;;3.13;2.60;;;18.30;67.60;;;;;;5063424;28;20445;-73
2022/07/28 02:28:51;;;;;;;4.93;3.00;;;18.30;67.60;;;;;;5060081;28;20551;-75
2022/07/28 02:31:23;;;;;;;4.20;3.07;;;18.30;67.50;;;;;;5056999;28;20935;-74
2022/07/28 02:33:53;;;;;;;4.17;3.00;;;18.30;67.60;;;;;;5061103;28;20499;-73
2022/07/28 02:36:31;;;;;;;3.93;2.80;;;18.30;67.70;;;;;;5058901;28;20962;-75
2022/07/28 02:39:03;;;;;;;3.53;2.90;;;18.10;67.90;;;;;;5059137;28;20474;-73
2022/07/28 02:41:32;;;;;;;8.07;2.90;;;18.10;68.20;;;;;;5058276;28;20416;-74
2022/07/28 02:44:02;;;;;;;5.90;3.03;;;18.10;68.30;;;;;;5068452;28;20448;-73
2022/07/28 02:46:50;;;;;;;3.70;2.73;;;18.10;68.20;;;;;;5060014;28;20962;-72
2022/07/28 02:49:23;;;;;;;4.53;2.70;;;18.10;68.20;;;;;;5063070;28;20615;-73
2022/07/28 02:51:51;;;;;;;6.03;3.20;;;18.10;68.50;;;;;;5062749;28;20918;-73
2022/07/28 02:54:18;;;;;;;3.20;2.90;;;18.10;68.50;;;;;;5068091;28;20437;-73
2022/07/28 02:56:46;;;;;;;3.90;2.80;;;18.10;68.20;;;;;;5064522;28;20456;-74
2022/07/28 02:59:13;;;;;;;5.30;2.60;;;18.10;68.30;;;;;;5067661;28;20423;-73
2022/07/28 03:01:41;;;;;;;3.83;3.20;;;18.20;68.00;;;;;;5061789;28;20426;-73
2022/07/28 03:04:09;;;;;;;4.03;2.80;;;18.10;68.30;;;;;;5067899;28;20437;-73
2022/07/28 03:06:35;;;;;;;6.40;3.30;;;18.10;68.30;;;;;;5065296;28;20487;-72
2022/07/28 03:09:00;;;;;;;5.50;3.43;;;18.00;68.60;;;;;;5067815;28;20954;-74
2022/07/28 03:11:26;;;;;;;5.73;3.50;;;18.00;68.60;;;;;;5067699;28;20505;-73
2022/07/28 03:13:52;;;;;;;6.23;3.33;;;17.90;68.80;;;;;;5067007;28;20181;-73
2022/07/28 03:16:18;;;;;;;5.90;3.30;;;18.00;68.60;;;;;;5061103;28;20794;-73
2022/07/28 03:18:43;;;;;;;4.80;3.30;;;18.10;68.60;;;;;;5066504;28;20681;-73
2022/07/28 03:21:09;;;;;;;5.43;3.00;;;18.00;68.80;;;;;;5067013;28;20203;-72
2022/07/28 03:23:44;;;;;;;6.60;3.50;;;18.00;68.60;;;;;;5065209;28;20184;-73
2022/07/28 03:26:29;;;;;;;8.40;3.80;;;18.00;67.50;;;;;;5060803;28;20186;-71
2022/07/28 03:28:56;;;;;;;5.13;3.00;;;17.90;67.70;;;;;;5065855;28;20996;-72
2022/07/28 03:31:24;;;;;;;7.87;3.30;;;17.90;68.30;;;;;;5055999;28;20418;-73
2022/07/28 03:33:50;;;;;;;4.83;3.20;;;18.00;68.80;;;;;;5067880;28;20544;-75
2022/07/28 03:36:20;;;;;;;6.10;3.00;;;18.10;68.50;;;;;;5063781;28;20502;-74
2022/07/28 03:38:53;;;;;;;6.00;3.23;;;18.20;68.20;;;;;;5060922;28;20431;-73
2022/07/28 03:41:21;;;;;;;7.90;3.70;;;18.20;68.20;;;;;;5064033;28;20422;-74
2022/07/28 03:43:48;;;;;;;6.13;3.00;;;18.10;68.30;;;;;;5065342;28;20410;-73
2022/07/28 03:46:14;;;;;;;10.03;4.13;;;18.00;68.60;;;;;;5064008;28;20612;-73
2022/07/28 03:48:40;;;;;;;7.60;3.67;;;18.00;68.60;;;;;;5063085;28;20990;-73
2022/07/28 03:51:05;;;;;;;6.37;3.70;;;18.00;68.50;;;;;;5064914;28;20642;-72
2022/07/28 03:53:31;;;;;;;8.97;3.23;;;17.90;68.80;;;;;;5057640;28;20269;-73
2022/07/28 03:55:57;;;;;;;5.67;3.60;;;17.90;68.00;;;;;;5057634;28;20691;-73
2022/07/28 03:58:26;;;;;;;4.63;3.43;;;17.90;68.90;;;;;;5065172;28;20185;-73
2022/07/28 04:00:52;;;;;;;4.57;3.23;;;17.90;69.20;;;;;;5064867;28;20673;-73
2022/07/28 04:03:19;;;;;;;5.80;3.30;;;17.90;69.40;;;;;;5065684;28;20513;-72
2022/07/28 04:05:45;;;;;;;11.70;3.40;;;18.00;68.90;;;;;;5064782;28;20787;-73
2022/07/28 04:08:11;;;;;;;8.93;3.40;;;18.00;68.20;;;;;;5062846;28;20484;-73
2022/07/28 04:10:37;;;;;;;5.33;3.60;;;18.00;68.80;;;;;;5060619;28;20416;-73
2022/07/28 04:13:02;;;;;;;3.90;3.00;;;17.80;68.50;;;;;;5063741;28;20672;-72
2022/07/28 04:15:30;;;;;;;4.30;3.20;;;17.70;69.40;;;;;;5059974;28;20187;-73
2022/07/28 04:17:56;;;;;;;4.00;3.37;;;17.80;70.10;;;;;;5061649;28;20229;-72
2022/07/28 04:20:24;;;;;;;5.50;3.43;;;17.80;69.70;;;;;;5054311;28;20471;-71
2022/07/28 04:22:51;;;;;;;7.33;4.20;;;17.80;68.90;;;;;;5064415;28;20416;-73
2022/07/28 04:25:18;;;;;;;4.13;3.23;;;17.90;69.40;;;;;;5065596;28;20416;-73
2022/07/28 04:27:44;;;;;;;7.43;3.80;;;18.00;69.10;;;;;;5063076;28;21070;-72
2022/07/28 04:30:16;;;;;;;4.37;3.40;;;18.10;68.80;;;;;;5061537;28;21052;-71
2022/07/28 04:32:42;;;;;;;5.00;3.40;;;18.10;68.80;;;;;;5063173;28;20475;-73
2022/07/28 04:35:09;;;;;;;4.57;3.40;;;18.00;68.60;;;;;;5061748;28;20426;-72
2022/07/28 04:37:35;;;;;;;9.50;3.97;;;18.10;68.30;;;;;;5066385;28;20456;-73
2022/07/28 04:40:02;;;;;;;4.57;3.17;;;17.90;67.90;;;;;;5060948;28;20485;-74
2022/07/28 04:42:27;;;;;;;5.87;3.60;;;17.80;68.90;;;;;;5066437;28;20422;-73
2022/07/28 04:44:53;;;;;;;5.27;3.80;;;17.90;69.20;;;;;;5068914;28;20426;-73
2022/07/28 04:47:19;;;;;;;4.20;3.20;;;18.00;69.40;;;;;;5071036;28;20224;-72
2022/07/28 04:49:44;;;;;;;5.30;3.63;;;18.10;69.10;;;;;;5063109;28;20704;-72
2022/07/28 04:52:11;;;;;;;5.00;3.60;;;18.10;68.90;;;;;;5063510;28;20195;-73
2022/07/28 04:54:37;;;;;;;7.03;4.20;;;18.10;68.30;;;;;;5067093;28;20181;-77
2022/07/28 04:57:03;;;;;;;6.80;4.20;;;18.20;68.90;;;;;;5068021;28;20500;-75
2022/07/28 04:59:29;;;;;;;5.57;3.40;;;18.30;68.90;;;;;;5071244;28;20432;-77
2022/07/28 05:01:56;;;;;;;8.43;4.30;;;18.30;68.60;;;;;;5069440;28;20420;-75
2022/07/28 05:04:22;;;;;;;7.33;3.47;;;18.20;67.70;;;;;;5071430;28;20181;-76
2022/07/28 05:06:48;;;;;;;4.70;3.70;;;18.20;68.00;;;;;;5064100;28;20482;-73
2022/07/28 05:09:13;;;;;;;5.60;3.80;;;18.20;68.00;;;;;;5071415;28;20462;-73
2022/07/28 05:11:39;;;;;;;7.70;3.80;;;18.20;68.00;;;;;;5082096;28;20191;-73
2022/07/28 05:14:04;;;;;;;6.40;3.70;;;18.20;68.00;;;;;;5078031;28;20196;-74
2022/07/28 05:16:30;;;;;;;11.53;3.90;;;18.20;67.70;;;;;;5059953;28;20225;-74
2022/07/28 05:18:56;;;;;;;5.30;3.90;;;18.20;68.00;;;;;;5066362;28;20343;-72
2022/07/28 05:21:21;;;;;;;7.07;4.30;;;18.20;67.90;;;;;;5066735;28;20223;-73
2022/07/28 05:23:47;;;;;;;10.23;3.80;;;18.20;68.00;;;;;;5068184;28;20184;-72
2022/07/28 05:26:13;;;;;;;6.60;4.40;;;18.30;67.70;;;;;;5061833;28;20212;-72
2022/07/28 05:28:39;;;;;;;9.37;4.57;;;18.30;67.70;;;;;;5066360;28;20731;-74
2022/07/28 05:31:06;;;;;;;5.63;4.50;;;18.40;67.70;;;;;;5061717;28;20552;-72
2022/07/28 05:33:33;;;;;;;12.13;4.20;;;18.40;67.70;;;;;;5069453;28;20774;-75
2022/07/28 05:35:58;;;;;;;7.70;3.90;;;18.40;67.60;;;;;;5069851;28;20440;-71
2022/07/28 05:38:25;;;;;;;5.73;4.37;;;18.30;67.90;;;;;;5066747;28;20443;-72
2022/07/28 05:40:51;;;;;;;10.97;4.60;;;18.00;69.10;;;;;;5061212;28;20193;-74
2022/07/28 05:43:18;;;;;;;11.07;3.77;;;18.00;69.40;;;;;;5064318;28;20422;-73
2022/07/28 05:45:43;;;;;;;6.60;4.00;;;18.10;68.90;;;;;;5063331;28;20484;-72
2022/07/28 05:48:09;;;;;;;7.10;4.23;;;18.20;68.80;;;;;;5065448;28;20944;-77
2022/07/28 05:50:35;;;;;;;6.40;4.53;;;18.10;69.20;;;;;;5067014;28;20181;-75
2022/07/28 05:53:01;;;;;;;7.90;4.00;;;18.10;69.20;;;;;;5069102;28;20185;-72
2022/07/28 05:55:28;;;;;;;6.83;4.23;;;18.20;69.40;;;;;;5067381;28;20962;-76
2022/07/28 05:57:54;;;;;;;7.40;4.40;;;18.30;69.10;;;;;;5061152;28;20206;-74
2022/07/28 06:00:21;;;;;;;7.53;3.77;;;18.30;69.10;;;;;;5069118;28;20436;-72
2022/07/28 06:02:48;;;;;;;6.27;4.80;;;18.30;69.40;;;;;;5064633;28;20181;-73
2022/07/28 06:05:18;;;;;;;7.37;3.83;;;18.20;69.70;;;;;;5066636;28;20423;-72
2022/07/28 06:07:45;;;;;;;8.20;4.43;;;18.20;70.20;;;;;;5063540;28;20574;-73
2022/07/28 06:10:12;;;;;;;10.97;4.53;;;18.30;69.90;;;;;;5065677;28;20475;-74
2022/07/28 06:12:49;;;;;;;9.57;5.03;;;18.50;69.50;;;;;;5066928;28;20615;-74
2022/07/28 06:15:23;;;;;;;13.23;5.13;;;18.60;69.40;;;;;;5064256;28;20413;-73
2022/07/28 06:17:51;;;;;;;17.63;6.50;;;18.60;69.40;;;;;;5060416;28;20531;-71
2022/07/28 06:20:18;;;;;;;10.87;5.07;;;18.70;69.70;;;;;;5068199;28;20886;-73
2022/07/28 06:22:49;;;;;;;9.83;5.43;;;18.80;69.20;;;;;;5068677;28;20426;-73
2022/07/28 06:25:17;;;;;;;7.23;5.10;;;18.70;69.50;;;;;;5065393;28;20739;-72
2022/07/28 06:27:51;;;;;;;10.13;5.50;;;18.80;69.40;;;;;;5065693;28;20825;-73
2022/07/28 06:30:18;;;;;;;12.23;5.73;;;18.90;69.10;;;;;;5063295;28;20471;-72
2022/07/28 06:32:44;;;;;;;9.30;5.50;;;18.70;69.70;;;;;;5069249;28;20893;-72
2022/07/28 06:35:13;;;;;;;8.90;5.73;;;18.80;69.80;;;;;;5069578;28;20550;-74
2022/07/28 06:37:39;;;;;;;13.07;6.10;;;18.90;69.40;;;;;;5063310;28;20606;-75
2022/07/28 06:40:06;;;;;;;9.07;6.50;;;18.90;69.40;;;;;;5065432;28;20457;-75
2022/07/28 06:42:32;;;;;;;8.10;5.23;;;19.00;69.40;;;;;;5066852;28;20937;-74
2022/07/28 06:44:57;;;;;;;12.13;6.50;;;19.00;69.50;;;;;;5063757;28;20519;-74
2022/07/28 06:47:23;;;;;;;12.47;6.67;;;19.00;69.40;;;;;;5060880;28;20960;-72
2022/07/28 06:49:49;;;;;;;7.07;5.43;;;18.90;69.90;;;;;;5068364;28;20290;-75
2022/07/28 06:52:17;;;;;;;7.93;5.50;;;19.00;70.10;;;;;;5067634;28;20194;-73
2022/07/28 06:54:42;;;;;;;10.47;6.43;;;19.20;69.80;;;;;;5068640;28;20172;-74
2022/07/28 06:57:08;;;;;;;7.90;5.80;;;19.20;69.80;;;;;;5066634;28;20450;-75
2022/07/28 06:59:34;;;;;;;8.07;5.40;;;19.40;69.70;;;;;;5065332;28;20272;-75
2022/07/28 07:02:00;;;;;;;7.33;6.20;;;19.60;68.90;;;;;;5065966;28;20188;-73
2022/07/28 07:04:27;;;;;;;9.90;7.33;;;19.70;69.10;;;;;;5061022;28;20667;-75
2022/07/28 07:06:52;;;;;;;13.60;9.17;;;19.70;69.10;;;;;;5067626;28;20541;-74
2022/07/28 07:09:18;;;;;;;9.73;7.03;;;19.80;69.20;;;;;;5062025;28;20552;-72
2022/07/28 07:11:44;;;;;;;12.20;6.63;;;19.80;69.40;;;;;;5067445;28;20221;-73
2022/07/28 07:14:09;;;;;;;11.07;7.00;;;19.80;69.20;;;;;;5060953;28;20177;-75
2022/07/28 07:16:35;;;;;;;10.30;6.87;;;19.90;69.10;;;;;;5059499;28;20285;-74
2022/07/28 07:19:00;;;;;;;8.50;6.87;;;19.90;69.10;;;;;;5061324;28;20221;-75
2022/07/28 07:21:26;;;;;;;13.80;8.00;;;20.00;69.10;;;;;;5064184;28;20844;-75
2022/07/28 07:23:52;;;;;;;10.67;7.13;;;20.10;69.20;;;;;;5068564;28;20680;-74
2022/07/28 07:26:17;;;;;;;11.53;7.27;;;20.00;69.40;;;;;;5066192;28;20196;-74
2022/07/28 07:28:43;;;;;;;11.83;6.90;;;20.00;69.70;;;;;;5064654;28;20291;-74
2022/07/28 07:31:09;;;;;;;12.60;7.80;;;20.00;70.10;;;;;;5069816;28;20191;-74
2022/07/28 07:33:34;;;;;;;11.43;7.30;;;20.00;70.20;;;;;;5075243;28;20537;-74
2022/07/28 07:36:00;;;;;;;10.40;7.40;;;20.10;69.90;;;;;;5067001;28;20181;-73
2022/07/28 07:38:25;;;;;;;11.43;7.40;;;20.30;69.50;;;;;;5058981;28;20586;-75
2022/07/28 07:40:51;;;;;;;9.43;7.80;;;20.40;69.20;;;;;;5066103;28;20190;-75
2022/07/28 07:43:17;;;;;;;13.57;8.47;;;20.50;68.90;;;;;;5064527;28;20592;-75
2022/07/28 07:45:43;;;;;;;10.60;8.27;;;20.50;69.10;;;;;;5065961;28;20184;-75
2022/07/28 07:48:09;;;;;;;10.20;7.80;;;20.60;68.90;;;;;;5060406;28;20467;-76
2022/07/28 07:50:35;;;;;;;16.03;8.70;;;20.70;68.60;;;;;;5063584;28;20198;-74
2022/07/28 07:53:00;;;;;;;14.50;8.23;;;20.80;68.80;;;;;;5065929;28;20420;-73
2022/07/28 07:55:26;;;;;;;12.67;8.00;;;20.80;68.80;;;;;;5067755;28;20422;-74
2022/07/28 07:57:52;;;;;;;12.60;8.43;;;20.90;68.30;;;;;;5063570;28;20225;-74
2022/07/28 08:00:18;;;;;;;10.97;8.20;;;21.00;68.20;;;;;;5063010;28;20931;-75
2022/07/28 08:02:44;;;;;;;12.73;8.73;;;21.10;67.70;;;;;;5058151;28;20185;-74
2022/07/28 08:05:09;;;;;;;19.40;8.83;;;21.10;67.90;;;;;;5061706;28;20289;-74
2022/07/28 08:07:35;;;;;;;14.20;8.10;;;21.10;68.00;;;;;;5062904;28;20285;-75
2022/07/28 08:10:02;;;;;;;12.53;7.93;;;21.10;68.20;;;;;;5061323;28;20218;-74
2022/07/28 08:12:27;;;;;;;15.30;8.90;;;21.10;68.20;;;;;;5062157;28;20453;-75
2022/07/28 08:14:53;;;;;;;12.90;8.20;;;21.20;68.20;;;;;;5069878;28;20510;-75
2022/07/28 08:17:20;;;;;;;14.20;8.60;;;21.40;67.70;;;;;;5068290;28;20224;-75
2022/07/28 08:19:46;;;;;;;12.50;8.90;;;21.30;67.90;;;;;;5071569;28;20914;-76
2022/07/28 08:22:11;;;;;;;11.20;8.13;;;21.40;67.60;;;;;;5068380;28;20421;-73
2022/07/28 08:24:37;;;;;;;10.87;8.70;;;21.50;67.60;;;;;;5070440;28;20251;-75
2022/07/28 08:27:03;;;;;;;13.20;8.43;;;21.60;67.50;;;;;;5067572;28;20220;-74
2022/07/28 08:29:29;;;;;;;11.53;7.97;;;21.60;67.30;;;;;;5070092;28;20608;-75
2022/07/28 08:32:04;;;;;;;12.97;9.00;;;21.60;67.70;;;;;;5066628;28;20426;-75
2022/07/28 08:34:30;;;;;;;12.67;8.70;;;21.70;67.60;;;;;;5070357;28;20173;-73
2022/07/28 08:37:05;;;;;;;10.90;8.77;;;21.80;67.30;;;;;;5063066;28;20453;-76
2022/07/28 08:39:34;;;;;;;11.00;8.43;;;22.00;66.90;;;;;;5069139;28;20760;-75
2022/07/28 08:42:05;;;;;;;13.10;8.40;;;22.10;66.70;;;;;;5066745;28;20426;-74
2022/07/28 08:44:43;;;;;;;11.10;7.60;;;22.30;66.10;;;;;;5069903;28;20513;-73
2022/07/28 08:47:10;;;;;;;13.40;8.83;;;22.40;65.80;;;;;;5068291;28;20831;-75
2022/07/28 08:49:41;;;;;;;10.90;8.27;;;22.40;66.10;;;;;;5066036;28;20589;-75
2022/07/28 08:52:10;;;;;;;13.63;8.63;;;22.50;66.00;;;;;;5069190;28;21114;-76
2022/07/28 08:54:39;;;;;;;11.00;8.63;;;22.60;65.70;;;;;;5068257;28;20876;-75
2022/07/28 08:57:05;;;;;;;14.30;8.00;;;22.70;65.30;;;;;;5066761;28;20832;-75
2022/07/28 08:59:31;;;;;;;11.50;8.43;;;22.80;65.30;;;;;;5070920;28;20522;-75
2022/07/28 09:01:57;;;;;;;10.17;8.30;;;22.80;65.40;;;;;;5063757;28;20418;-74
2022/07/28 09:04:23;;;;;;;11.07;8.40;;;22.80;65.60;;;;;;5071018;28;20419;-76
2022/07/28 09:06:49;;;;;;;13.17;9.50;;;22.90;65.30;;;;;;5065730;28;20252;-76
2022/07/28 09:09:14;;;;;;;10.83;8.60;;;23.10;65.00;;;;;;5071316;28;20465;-74
2022/07/28 09:11:40;;;;;;;17.00;8.77;;;23.10;64.70;;;;;;5069490;28;20180;-74
2022/07/28 09:14:05;;;;;;;16.90;9.73;;;23.30;64.40;;;;;;5070894;28;20178;-74
2022/07/28 09:16:32;;;;;;;15.97;8.93;;;23.30;64.20;;;;;;5065698;28;20218;-74
2022/07/28 09:18:57;;;;;;;11.70;8.20;;;23.30;64.40;;;;;;5067290;28;20320;-75
2022/07/28 09:21:23;;;;;;;12.30;8.40;;;23.40;64.10;;;;;;5067507;28;20510;-75
2022/07/28 09:23:49;;;;;;;10.73;8.33;;;23.30;64.50;;;;;;5065066;28;20272;-74
2022/07/28 09:26:16;;;;;;;10.30;7.70;;;23.40;64.40;;;;;;5063190;28;20212;-74
2022/07/28 09:28:53;;;;;;;11.63;9.20;;;23.50;63.90;;;;;;5071507;28;20335;-74
2022/07/28 09:31:20;;;;;;;16.10;9.53;;;23.60;63.70;;;;;;5068901;28;20404;-73
2022/07/28 09:33:56;;;;;;;13.03;9.20;;;23.80;63.20;;;;;;5080998;28;20423;-74
2022/07/28 09:36:22;;;;;;;14.83;8.83;;;23.90;62.90;;;;;;5088354;28;20459;-75
2022/07/28 09:38:48;;;;;;;11.67;7.50;;;24.00;62.60;;;;;;5072794;28;20503;-74
2022/07/28 09:41:17;;;;;;;11.40;8.30;;;24.00;62.80;;;;;;5067294;28;20422;-75
2022/07/28 09:43:44;;;;;;;11.70;9.77;;;24.10;62.30;;;;;;5067440;28;20480;-76
2022/07/28 09:46:22;;;;;;;11.33;8.13;;;24.10;62.30;;;;;;5063834;28;20500;-75
2022/07/28 09:48:48;;;;;;;11.63;8.60;;;24.10;62.60;;;;;;5067398;28;20452;-74
2022/07/28 09:51:27;;;;;;;14.13;9.10;;;24.10;62.30;;;;;;5068862;28;20444;-74
2022/07/28 09:54:14;;;;;;;13.53;8.77;;;24.20;61.70;;;;;;5062866;28;20179;-75
2022/07/28 09:56:44;;;;;;;12.03;8.43;;;24.20;62.20;;;;;;5063683;28;20455;-74
2022/07/28 09:59:11;;;;;;;15.40;8.40;;;24.40;61.30;;;;;;5072210;28;20950;-75
2022/07/28 10:01:54;;;;;;;11.97;8.20;;;24.40;61.70;;;;;;5067776;28;20429;-77
2022/07/28 10:04:30;;;;;;;13.80;8.87;;;24.70;61.20;;;;;;5064659;28;20471;-74
2022/07/28 10:07:10;;;;;;;15.97;9.23;;;24.90;60.10;;;;;;5065097;28;20467;-74
2022/07/28 10:09:36;;;;;;;12.80;8.20;;;24.90;59.90;;;;;;5069713;28;20483;-75
2022/07/28 10:12:15;;;;;;;11.53;8.70;;;25.20;60.00;;;;;;5066861;28;20456;-73
2022/07/28 10:14:41;;;;;;;10.90;8.87;;;25.50;58.20;;;;;;5068592;28;20426;-74
2022/07/28 10:17:08;;;;;;;10.70;7.60;;;25.80;57.80;;;;;;5063585;28;20814;-75
2022/07/28 10:19:34;;;;;;;11.67;7.70;;;26.30;56.60;;;;;;5068959;28;20215;-74
2022/07/28 10:22:01;;;;;;;11.57;8.60;;;26.40;56.40;;;;;;5068696;28;20972;-75
2022/07/28 10:24:30;;;;;;;11.73;9.07;;;26.20;56.50;;;;;;5065100;28;20432;-75
2022/07/28 10:26:56;;;;;;;11.17;7.97;;;26.20;56.80;;;;;;5068401;28;20580;-74
2022/07/28 10:29:23;;;;;;;11.23;9.10;;;26.30;56.50;;;;;;5062113;28;20477;-75
2022/07/28 10:31:53;;;;;;;12.30;8.10;;;26.20;56.50;;;;;;5063298;28;20512;-73
2022/07/28 10:34:26;;;;;;;12.13;8.33;;;26.30;56.20;;;;;;5065936;28;20432;-72
2022/07/28 10:36:54;;;;;;;8.87;7.30;;;26.60;55.60;;;;;;5069064;28;20546;-73
2022/07/28 10:39:22;;;;;;;11.20;8.00;;;26.70;54.60;;;;;;5071837;28;20764;-74
2022/07/28 10:41:49;;;;;;;11.10;8.00;;;26.20;56.40;;;;;;5066452;28;20859;-76
2022/07/28 10:44:18;;;;;;;12.73;9.00;;;26.30;56.40;;;;;;5067970;28;20478;-73
2022/07/28 10:46:44;;;;;;;14.33;10.20;;;26.50;55.40;;;;;;5065199;28;20461;-77
2022/07/28 10:49:12;;;;;;;12.07;8.67;;;26.60;55.30;;;;;;5068144;28;20550;-72
2022/07/28 10:51:44;;;;;;;10.87;7.63;;;26.80;54.60;;;;;;5065906;28;20897;-72
2022/07/28 10:54:26;;;;;;;9.60;8.30;;;27.10;54.50;;;;;;5066272;28;20430;-75
2022/07/28 10:56:55;;;;;;;9.67;7.90;;;27.60;53.20;;;;;;5062759;28;20818;-73
2022/07/28 10:59:23;;;;;;;10.57;8.43;;;27.70;52.20;;;;;;5067975;28;20473;-73
2022/07/28 11:01:48;;;;;;;16.80;10.67;;;27.90;51.70;;;;;;5064741;28;20419;-74
2022/07/28 11:04:46;;;;;;;14.80;8.33;;;28.00;51.40;;;;;;5055362;28;20437;-74
2022/07/28 11:07:14;;;;;;;10.40;8.67;;;27.40;52.80;;;;;;5063771;28;20207;-73
2022/07/28 11:09:40;;;;;;;12.20;8.43;;;27.40;52.90;;;;;;5064991;28;20553;-72
2022/07/28 11:12:06;;;;;;;9.07;7.87;;;27.50;53.20;;;;;;5068463;28;20469;-74
2022/07/28 11:14:36;;;;;;;10.47;7.63;;;27.70;52.80;;;;;;5059341;28;20679;-73
2022/07/28 11:17:04;;;;;;;14.10;8.10;;;27.40;52.20;;;;;;5063718;28;20479;-74
2022/07/28 11:19:43;;;;;;;9.93;7.20;;;27.30;53.00;;;;;;5070580;28;20913;-75
2022/07/28 11:22:16;;;;;;;9.13;7.27;;;27.90;51.30;;;;;;5061344;28;20460;-73
2022/07/28 11:25:11;;;;;;;9.27;7.63;;;28.20;50.70;;;;;;5067927;28;20494;-74
2022/07/28 11:27:40;;;;;;;10.63;7.90;;;28.70;48.70;;;;;;5022750;28;20463;-73
2022/07/28 11:30:05;;;;;;;9.77;7.87;;;29.30;46.70;;;;;;5017750;28;20818;-74
2022/07/28 11:32:49;;;;;;;9.30;7.33;;;29.30;47.30;;;;;;4990521;28;20451;-74
2022/07/28 11:35:15;;;;;;;12.23;7.40;;;29.70;45.90;;;;;;5020861;28;20182;-73
2022/07/28 11:37:59;;;;;;;8.70;6.80;;;29.70;45.40;;;;;;5017943;28;20495;-75
2022/07/28 11:40:48;;;;;;;9.13;7.10;;;29.80;45.80;;;;;;5023689;28;20416;-75
2022/07/28 11:43:22;;;;;;;12.53;8.10;;;29.80;44.90;;;;;;5013895;28;20418;-72
2022/07/28 11:46:00;;;;;;;10.03;8.07;;;28.60;47.80;;;;;;5016151;28;20535;-76
2022/07/28 11:48:28;;;;;;;12.53;7.90;;;28.50;46.70;;;;;;5017768;28;20439;-75
2022/07/28 11:51:02;;;;;;;6.40;5.90;;;28.70;46.50;;;;;;5028184;28;20539;-73
2022/07/28 11:53:33;;;;;;;10.30;6.67;;;29.20;45.40;;;;;;5023831;28;20535;-73
2022/07/28 11:56:02;;;;;;;9.80;7.93;;;29.60;44.90;;;;;;5009165;28;20916;-74
2022/07/28 11:58:28;;;;;;;11.23;7.97;;;30.20;43.80;;;;;;5020609;28;20436;-73
2022/07/28 12:01:16;;;;;;;10.73;8.20;;;29.60;45.10;;;;;;5022563;28;20490;-73
2022/07/28 12:03:43;;;;;;;8.30;7.50;;;29.80;45.00;;;;;;5037259;28;20233;-72
2022/07/28 12:06:13;;;;;;;9.60;6.70;;;29.80;44.20;;;;;;5060929;28;20417;-76
2022/07/28 12:09:05;;;;;;;9.33;6.73;;;29.40;43.80;;;;;;5071999;28;20446;-73
2022/07/28 12:11:33;;;;;;;11.53;6.30;;;29.60;43.20;;;;;;5067661;28;20416;-73
2022/07/28 12:14:06;;;;;;;9.20;7.00;;;30.00;42.70;;;;;;5069756;28;20430;-74
2022/07/28 12:16:35;;;;;;;14.00;6.80;;;30.30;41.40;;;;;;5062451;28;20521;-73
2022/07/28 12:19:02;;;;;;;7.53;6.17;;;30.20;41.90;;;;;;5064244;28;20954;-75
2022/07/28 12:21:40;;;;;;;8.63;6.20;;;29.90;43.00;;;;;;5066450;28;20821;-73
2022/07/28 12:24:08;;;;;;;10.53;6.33;;;30.00;43.40;;;;;;5064438;28;20422;-72
2022/07/28 12:26:35;;;;;;;7.07;6.50;;;30.80;41.40;;;;;;5062685;28;20504;-72
2022/07/28 12:29:02;;;;;;;8.27;5.83;;;31.30;40.20;;;;;;5069569;28;20461;-74
2022/07/28 12:31:29;;;;;;;7.50;6.37;;;31.20;40.20;;;;;;5069600;28;20505;-75
2022/07/28 12:34:11;;;;;;;7.60;6.50;;;31.10;39.60;;;;;;5067916;28;21001;-76
2022/07/28 12:36:37;;;;;;;6.50;6.10;;;30.50;40.40;;;;;;5067871;28;20458;-75
2022/07/28 12:39:05;;;;;;;9.00;6.80;;;30.60;39.50;;;;;;5068701;28;20537;-73
2022/07/28 12:41:35;;;;;;;7.03;5.77;;;29.60;41.00;;;;;;5068768;28;20885;-75
2022/07/28 12:44:03;;;;;;;6.97;5.90;;;29.80;40.60;;;;;;5066007;28;20865;-72
2022/07/28 12:46:30;;;;;;;8.67;5.87;;;30.20;40.20;;;;;;5065162;28;20548;-73
2022/07/28 12:48:57;;;;;;;7.93;6.33;;;30.20;40.70;;;;;;5065517;28;20457;-73
2022/07/28 12:51:39;;;;;;;11.53;6.70;;;29.70;41.80;;;;;;5068349;28;20434;-73
2022/07/28 12:54:06;;;;;;;6.63;6.10;;;29.70;41.90;;;;;;5070846;28;20480;-73
2022/07/28 12:56:52;;;;;;;10.13;5.97;;;29.70;41.10;;;;;;5061045;28;20878;-74
2022/07/28 12:59:19;;;;;;;7.27;5.97;;;29.80;41.20;;;;;;5065733;28;20986;-74
2022/07/28 13:01:55;;;;;;;6.80;5.33;;;30.00;41.20;;;;;;5065037;28;20454;-72
2022/07/28 13:04:39;;;;;;;7.30;6.23;;;30.60;40.00;;;;;;5068929;28;20423;-73
2022/07/28 13:07:12;;;;;;;5.97;5.67;;;30.90;39.50;;;;;;5067909;28;20560;-73
2022/07/28 13:09:45;;;;;;;6.00;5.80;;;31.30;38.40;;;;;;5060252;28;20919;-72